sensor_id;sensor_type;location;lat;lon;timestamp;P1;durP1;ratioP1;P2;durP2;ratioP2
10313;SDS011;5202;49.138;10.090;2024-03-08T00:00:39;24.17;;;17.33;;
10313;SDS011;5202;49.138;10.090;2024-03-08T00:03:09;26.13;;;19.37;;
10313;SDS011;5202;49.138;10.090;2024-03-08T00:05:37;23.67;;;18.43;;
10313;SDS011;5202;49.138;10.090;2024-03-08T00:08:06;25.27;;;18.17;;
10313;SDS011;5202;49.138;10.090;2024-03-08T00:10:36;23.33;;;17.53;;
10313;SDS011;5202;49.138;10.090;2024-03-08T00:13:05;25.90;;;18.43;;
10313;SDS011;5202;49.138;10.090;2024-03-08T00:15:34;25.97;;;18.57;;
10313;SDS011;5202;49.138;10.090;2024-03-08T00:18:04;23.00;;;17.73;;
10313;SDS011;5202;49.138;10.090;2024-03-08T00:20:32;27.40;;;19.07;;
10313;SDS011;5202;49.138;10.090;2024-03-08T00:23:01;27.40;;;18.70;;
10313;SDS011;5202;49.138;10.090;2024-03-08T00:25:29;23.37;;;17.60;;
10313;SDS011;5202;49.138;10.090;2024-03-08T00:27:58;24.60;;;17.93;;
10313;SDS011;5202;49.138;10.090;2024-03-08T00:30:26;25.53;;;18.77;;
10313;SDS011;5202;49.138;10.090;2024-03-08T00:32:55;23.30;;;17.97;;
10313;SDS011;5202;49.138;10.090;2024-03-08T00:35:25;27.67;;;19.53;;
10313;SDS011;5202;49.138;10.090;2024-03-08T00:37:54;25.73;;;18.47;;
10313;SDS011;5202;49.138;10.090;2024-03-08T00:40:23;29.50;;;19.80;;
10313;SDS011;5202;49.138;10.090;2024-03-08T00:42:51;26.17;;;18.57;;
10313;SDS011;5202;49.138;10.090;2024-03-08T00:45:20;27.60;;;19.10;;
10313;SDS011;5202;49.138;10.090;2024-03-08T00:47:50;24.93;;;17.83;;
10313;SDS011;5202;49.138;10.090;2024-03-08T00:50:18;26.23;;;18.77;;
10313;SDS011;5202;49.138;10.090;2024-03-08T00:52:48;25.20;;;18.90;;
10313;SDS011;5202;49.138;10.090;2024-03-08T00:55:16;26.43;;;19.03;;
10313;SDS011;5202;49.138;10.090;2024-03-08T00:57:45;27.53;;;19.10;;
10313;SDS011;5202;49.138;10.090;2024-03-08T01:00:14;26.73;;;18.47;;
10313;SDS011;5202;49.138;10.090;2024-03-08T01:02:43;24.83;;;18.80;;
10313;SDS011;5202;49.138;10.090;2024-03-08T01:05:11;26.07;;;19.40;;
10313;SDS011;5202;49.138;10.090;2024-03-08T01:07:43;26.47;;;18.20;;
10313;SDS011;5202;49.138;10.090;2024-03-08T01:10:17;25.80;;;18.67;;
10313;SDS011;5202;49.138;10.090;2024-03-08T01:12:45;25.33;;;18.70;;
10313;SDS011;5202;49.138;10.090;2024-03-08T01:15:14;23.13;;;17.13;;
10313;SDS011;5202;49.138;10.090;2024-03-08T01:17:42;24.30;;;18.43;;
10313;SDS011;5202;49.138;10.090;2024-03-08T01:20:11;25.63;;;19.40;;
10313;SDS011;5202;49.138;10.090;2024-03-08T01:22:40;26.57;;;18.30;;
10313;SDS011;5202;49.138;10.090;2024-03-08T01:25:08;24.37;;;18.20;;
10313;SDS011;5202;49.138;10.090;2024-03-08T01:27:38;25.37;;;18.33;;
10313;SDS011;5202;49.138;10.090;2024-03-08T01:30:07;24.83;;;18.50;;
10313;SDS011;5202;49.138;10.090;2024-03-08T01:32:37;23.30;;;18.77;;
10313;SDS011;5202;49.138;10.090;2024-03-08T01:35:06;24.30;;;17.80;;
10313;SDS011;5202;49.138;10.090;2024-03-08T01:37:37;25.40;;;18.83;;
10313;SDS011;5202;49.138;10.090;2024-03-08T01:40:05;24.13;;;17.53;;
10313;SDS011;5202;49.138;10.090;2024-03-08T01:42:36;24.10;;;18.07;;
10313;SDS011;5202;49.138;10.090;2024-03-08T01:45:07;24.03;;;18.47;;
10313;SDS011;5202;49.138;10.090;2024-03-08T01:47:36;22.27;;;17.97;;
10313;SDS011;5202;49.138;10.090;2024-03-08T01:50:06;25.67;;;18.90;;
10313;SDS011;5202;49.138;10.090;2024-03-08T01:52:37;25.97;;;17.43;;
10313;SDS011;5202;49.138;10.090;2024-03-08T01:55:05;24.80;;;17.77;;
10313;SDS011;5202;49.138;10.090;2024-03-08T01:57:34;23.00;;;16.90;;
10313;SDS011;5202;49.138;10.090;2024-03-08T02:00:06;27.63;;;19.77;;
10313;SDS011;5202;49.138;10.090;2024-03-08T02:02:38;24.63;;;18.50;;
10313;SDS011;5202;49.138;10.090;2024-03-08T02:05:11;25.13;;;18.63;;
10313;SDS011;5202;49.138;10.090;2024-03-08T02:07:40;27.70;;;18.87;;
10313;SDS011;5202;49.138;10.090;2024-03-08T02:10:10;24.50;;;17.67;;
10313;SDS011;5202;49.138;10.090;2024-03-08T02:12:39;25.33;;;18.30;;
10313;SDS011;5202;49.138;10.090;2024-03-08T02:15:09;26.97;;;18.67;;
10313;SDS011;5202;49.138;10.090;2024-03-08T02:17:37;25.63;;;17.97;;
10313;SDS011;5202;49.138;10.090;2024-03-08T02:20:06;27.43;;;18.70;;
10313;SDS011;5202;49.138;10.090;2024-03-08T02:22:38;23.70;;;17.60;;
10313;SDS011;5202;49.138;10.090;2024-03-08T02:25:07;26.00;;;18.80;;
10313;SDS011;5202;49.138;10.090;2024-03-08T02:27:36;27.33;;;18.83;;
10313;SDS011;5202;49.138;10.090;2024-03-08T02:30:05;24.70;;;18.50;;
10313;SDS011;5202;49.138;10.090;2024-03-08T02:32:36;22.93;;;17.80;;
10313;SDS011;5202;49.138;10.090;2024-03-08T02:35:05;25.47;;;18.27;;
10313;SDS011;5202;49.138;10.090;2024-03-08T02:37:34;25.93;;;18.00;;
10313;SDS011;5202;49.138;10.090;2024-03-08T02:40:04;24.33;;;18.30;;
10313;SDS011;5202;49.138;10.090;2024-03-08T02:42:33;26.23;;;18.23;;
10313;SDS011;5202;49.138;10.090;2024-03-08T02:45:02;24.70;;;18.10;;
10313;SDS011;5202;49.138;10.090;2024-03-08T02:47:32;23.97;;;18.13;;
10313;SDS011;5202;49.138;10.090;2024-03-08T02:50:01;27.30;;;19.13;;
10313;SDS011;5202;49.138;10.090;2024-03-08T02:52:30;25.33;;;18.53;;
10313;SDS011;5202;49.138;10.090;2024-03-08T02:55:00;22.70;;;16.73;;
10313;SDS011;5202;49.138;10.090;2024-03-08T02:57:30;24.50;;;18.77;;
10313;SDS011;5202;49.138;10.090;2024-03-08T02:59:58;25.73;;;19.20;;
10313;SDS011;5202;49.138;10.090;2024-03-08T03:02:27;26.33;;;18.50;;
10313;SDS011;5202;49.138;10.090;2024-03-08T03:04:55;28.57;;;19.53;;
10313;SDS011;5202;49.138;10.090;2024-03-08T03:07:26;27.43;;;19.03;;
10313;SDS011;5202;49.138;10.090;2024-03-08T03:09:55;27.53;;;19.77;;
10313;SDS011;5202;49.138;10.090;2024-03-08T03:12:23;28.10;;;19.43;;
10313;SDS011;5202;49.138;10.090;2024-03-08T03:14:53;25.90;;;18.97;;
10313;SDS011;5202;49.138;10.090;2024-03-08T03:17:23;28.97;;;20.23;;
10313;SDS011;5202;49.138;10.090;2024-03-08T03:19:52;25.23;;;19.80;;
10313;SDS011;5202;49.138;10.090;2024-03-08T03:22:20;27.03;;;19.90;;
10313;SDS011;5202;49.138;10.090;2024-03-08T03:24:49;25.77;;;18.57;;
10313;SDS011;5202;49.138;10.090;2024-03-08T03:27:18;27.70;;;21.40;;
10313;SDS011;5202;49.138;10.090;2024-03-08T03:29:46;26.10;;;19.63;;
10313;SDS011;5202;49.138;10.090;2024-03-08T03:32:17;28.90;;;19.77;;
10313;SDS011;5202;49.138;10.090;2024-03-08T03:34:45;27.13;;;19.73;;
10313;SDS011;5202;49.138;10.090;2024-03-08T03:37:14;30.20;;;20.67;;
10313;SDS011;5202;49.138;10.090;2024-03-08T03:39:44;27.10;;;21.13;;
10313;SDS011;5202;49.138;10.090;2024-03-08T03:42:16;29.17;;;20.67;;
10313;SDS011;5202;49.138;10.090;2024-03-08T03:44:44;29.63;;;20.37;;
10313;SDS011;5202;49.138;10.090;2024-03-08T03:47:14;27.30;;;19.07;;
10313;SDS011;5202;49.138;10.090;2024-03-08T03:49:44;25.67;;;19.27;;
10313;SDS011;5202;49.138;10.090;2024-03-08T03:52:12;28.00;;;20.30;;
10313;SDS011;5202;49.138;10.090;2024-03-08T03:54:42;27.40;;;19.40;;
10313;SDS011;5202;49.138;10.090;2024-03-08T03:57:10;29.10;;;20.37;;
10313;SDS011;5202;49.138;10.090;2024-03-08T03:59:40;30.00;;;20.27;;
10313;SDS011;5202;49.138;10.090;2024-03-08T04:02:09;27.80;;;20.37;;
10313;SDS011;5202;49.138;10.090;2024-03-08T04:04:37;28.20;;;19.57;;
10313;SDS011;5202;49.138;10.090;2024-03-08T04:07:07;25.83;;;19.27;;
10313;SDS011;5202;49.138;10.090;2024-03-08T04:09:36;26.87;;;20.43;;
10313;SDS011;5202;49.138;10.090;2024-03-08T04:12:05;29.73;;;21.07;;
10313;SDS011;5202;49.138;10.090;2024-03-08T04:14:34;32.17;;;20.67;;
10313;SDS011;5202;49.138;10.090;2024-03-08T04:17:02;26.87;;;19.60;;
10313;SDS011;5202;49.138;10.090;2024-03-08T04:19:32;26.73;;;19.50;;
10313;SDS011;5202;49.138;10.090;2024-03-08T04:22:01;27.90;;;20.67;;
10313;SDS011;5202;49.138;10.090;2024-03-08T04:24:31;25.37;;;19.37;;
10313;SDS011;5202;49.138;10.090;2024-03-08T04:26:59;28.77;;;20.43;;
10313;SDS011;5202;49.138;10.090;2024-03-08T04:29:28;26.40;;;19.97;;
10313;SDS011;5202;49.138;10.090;2024-03-08T04:31:57;26.60;;;18.10;;
10313;SDS011;5202;49.138;10.090;2024-03-08T04:34:25;28.70;;;20.47;;
10313;SDS011;5202;49.138;10.090;2024-03-08T04:36:56;27.53;;;19.60;;
10313;SDS011;5202;49.138;10.090;2024-03-08T04:39:25;27.37;;;19.90;;
10313;SDS011;5202;49.138;10.090;2024-03-08T04:41:56;24.37;;;19.43;;
10313;SDS011;5202;49.138;10.090;2024-03-08T04:44:31;27.17;;;19.20;;
10313;SDS011;5202;49.138;10.090;2024-03-08T04:47:00;28.53;;;21.30;;
10313;SDS011;5202;49.138;10.090;2024-03-08T04:49:28;26.53;;;20.60;;
10313;SDS011;5202;49.138;10.090;2024-03-08T04:51:57;27.90;;;20.37;;
10313;SDS011;5202;49.138;10.090;2024-03-08T04:54:26;29.13;;;20.37;;
10313;SDS011;5202;49.138;10.090;2024-03-08T04:56:55;28.77;;;20.40;;
10313;SDS011;5202;49.138;10.090;2024-03-08T04:59:24;29.90;;;20.80;;
10313;SDS011;5202;49.138;10.090;2024-03-08T05:01:53;26.97;;;20.20;;
10313;SDS011;5202;49.138;10.090;2024-03-08T05:04:24;30.47;;;21.53;;
10313;SDS011;5202;49.138;10.090;2024-03-08T05:06:55;26.97;;;19.73;;
10313;SDS011;5202;49.138;10.090;2024-03-08T05:09:27;28.87;;;20.70;;
10313;SDS011;5202;49.138;10.090;2024-03-08T05:12:00;29.37;;;20.80;;
10313;SDS011;5202;49.138;10.090;2024-03-08T05:14:28;28.73;;;20.73;;
10313;SDS011;5202;49.138;10.090;2024-03-08T05:16:57;25.77;;;19.83;;
10313;SDS011;5202;49.138;10.090;2024-03-08T05:19:25;26.27;;;19.97;;
10313;SDS011;5202;49.138;10.090;2024-03-08T05:21:56;26.00;;;20.17;;
10313;SDS011;5202;49.138;10.090;2024-03-08T05:24:24;26.57;;;19.53;;
10313;SDS011;5202;49.138;10.090;2024-03-08T05:26:52;28.93;;;20.40;;
10313;SDS011;5202;49.138;10.090;2024-03-08T05:29:22;28.03;;;20.47;;
10313;SDS011;5202;49.138;10.090;2024-03-08T05:31:51;31.27;;;20.50;;
10313;SDS011;5202;49.138;10.090;2024-03-08T05:34:20;25.60;;;18.97;;
10313;SDS011;5202;49.138;10.090;2024-03-08T05:36:49;28.40;;;20.50;;
10313;SDS011;5202;49.138;10.090;2024-03-08T05:39:18;27.47;;;20.10;;
10313;SDS011;5202;49.138;10.090;2024-03-08T05:41:47;29.17;;;21.13;;
10313;SDS011;5202;49.138;10.090;2024-03-08T05:44:20;26.43;;;20.00;;
10313;SDS011;5202;49.138;10.090;2024-03-08T05:46:49;29.67;;;20.60;;
10313;SDS011;5202;49.138;10.090;2024-03-08T05:49:18;26.17;;;20.03;;
10313;SDS011;5202;49.138;10.090;2024-03-08T05:51:47;27.40;;;20.40;;
10313;SDS011;5202;49.138;10.090;2024-03-08T05:54:16;28.53;;;20.80;;
10313;SDS011;5202;49.138;10.090;2024-03-08T05:56:48;31.33;;;20.77;;
10313;SDS011;5202;49.138;10.090;2024-03-08T05:59:19;24.73;;;19.23;;
10313;SDS011;5202;49.138;10.090;2024-03-08T06:01:51;30.63;;;21.53;;
10313;SDS011;5202;49.138;10.090;2024-03-08T06:04:19;25.93;;;20.47;;
10313;SDS011;5202;49.138;10.090;2024-03-08T06:06:47;26.67;;;20.43;;
10313;SDS011;5202;49.138;10.090;2024-03-08T06:09:18;28.30;;;20.27;;
10313;SDS011;5202;49.138;10.090;2024-03-08T06:11:51;27.77;;;20.60;;
10313;SDS011;5202;49.138;10.090;2024-03-08T06:14:20;31.73;;;21.03;;
10313;SDS011;5202;49.138;10.090;2024-03-08T06:16:51;27.97;;;20.20;;
10313;SDS011;5202;49.138;10.090;2024-03-08T06:19:20;29.07;;;20.60;;
10313;SDS011;5202;49.138;10.090;2024-03-08T06:21:48;29.77;;;21.10;;
10313;SDS011;5202;49.138;10.090;2024-03-08T06:24:16;27.53;;;21.03;;
10313;SDS011;5202;49.138;10.090;2024-03-08T06:26:46;29.47;;;21.37;;
10313;SDS011;5202;49.138;10.090;2024-03-08T06:29:15;26.77;;;20.57;;
10313;SDS011;5202;49.138;10.090;2024-03-08T06:31:43;26.33;;;20.50;;
10313;SDS011;5202;49.138;10.090;2024-03-08T06:34:13;25.50;;;20.07;;
10313;SDS011;5202;49.138;10.090;2024-03-08T06:36:42;26.53;;;21.03;;
10313;SDS011;5202;49.138;10.090;2024-03-08T06:39:10;30.10;;;22.27;;
10313;SDS011;5202;49.138;10.090;2024-03-08T06:41:38;32.57;;;21.73;;
10313;SDS011;5202;49.138;10.090;2024-03-08T06:44:07;30.57;;;20.83;;
10313;SDS011;5202;49.138;10.090;2024-03-08T06:46:35;27.83;;;20.90;;
10313;SDS011;5202;49.138;10.090;2024-03-08T06:49:05;28.87;;;21.30;;
10313;SDS011;5202;49.138;10.090;2024-03-08T06:51:35;27.10;;;20.77;;
10313;SDS011;5202;49.138;10.090;2024-03-08T06:54:04;29.27;;;20.70;;
10313;SDS011;5202;49.138;10.090;2024-03-08T06:56:36;28.40;;;20.67;;
10313;SDS011;5202;49.138;10.090;2024-03-08T06:59:04;26.10;;;19.53;;
10313;SDS011;5202;49.138;10.090;2024-03-08T07:01:33;28.03;;;21.27;;
10313;SDS011;5202;49.138;10.090;2024-03-08T07:04:12;28.63;;;19.83;;
10313;SDS011;5202;49.138;10.090;2024-03-08T07:06:42;26.67;;;19.50;;
10313;SDS011;5202;49.138;10.090;2024-03-08T07:09:10;26.40;;;20.17;;
10313;SDS011;5202;49.138;10.090;2024-03-08T07:11:42;25.83;;;19.83;;
10313;SDS011;5202;49.138;10.090;2024-03-08T07:14:11;29.37;;;20.40;;
10313;SDS011;5202;49.138;10.090;2024-03-08T07:16:41;29.03;;;20.00;;
10313;SDS011;5202;49.138;10.090;2024-03-08T07:19:11;27.50;;;20.20;;
10313;SDS011;5202;49.138;10.090;2024-03-08T07:21:45;26.20;;;19.57;;
10313;SDS011;5202;49.138;10.090;2024-03-08T07:24:13;28.80;;;20.13;;
10313;SDS011;5202;49.138;10.090;2024-03-08T07:27:02;26.70;;;19.03;;
10313;SDS011;5202;49.138;10.090;2024-03-08T07:29:31;30.87;;;20.03;;
10313;SDS011;5202;49.138;10.090;2024-03-08T07:32:00;25.97;;;18.87;;
10313;SDS011;5202;49.138;10.090;2024-03-08T07:34:38;27.77;;;20.30;;
10313;SDS011;5202;49.138;10.090;2024-03-08T07:37:08;26.70;;;19.53;;
10313;SDS011;5202;49.138;10.090;2024-03-08T07:39:38;26.20;;;18.97;;
10313;SDS011;5202;49.138;10.090;2024-03-08T07:42:06;27.10;;;19.03;;
10313;SDS011;5202;49.138;10.090;2024-03-08T07:44:35;27.43;;;19.40;;
10313;SDS011;5202;49.138;10.090;2024-03-08T07:47:03;26.13;;;18.80;;
10313;SDS011;5202;49.138;10.090;2024-03-08T07:49:36;25.40;;;18.57;;
10313;SDS011;5202;49.138;10.090;2024-03-08T07:52:05;27.83;;;19.10;;
10313;SDS011;5202;49.138;10.090;2024-03-08T07:54:35;26.60;;;19.87;;
10313;SDS011;5202;49.138;10.090;2024-03-08T07:57:04;26.37;;;19.70;;
10313;SDS011;5202;49.138;10.090;2024-03-08T07:59:33;27.60;;;20.50;;
10313;SDS011;5202;49.138;10.090;2024-03-08T08:02:02;27.13;;;19.23;;
10313;SDS011;5202;49.138;10.090;2024-03-08T08:04:31;26.37;;;19.03;;
10313;SDS011;5202;49.138;10.090;2024-03-08T08:07:00;26.80;;;19.40;;
10313;SDS011;5202;49.138;10.090;2024-03-08T08:09:28;28.17;;;20.00;;
10313;SDS011;5202;49.138;10.090;2024-03-08T08:12:03;23.60;;;17.83;;
10313;SDS011;5202;49.138;10.090;2024-03-08T08:14:32;30.30;;;20.80;;
10313;SDS011;5202;49.138;10.090;2024-03-08T08:17:00;29.90;;;19.47;;
10313;SDS011;5202;49.138;10.090;2024-03-08T08:19:31;28.63;;;20.23;;
10313;SDS011;5202;49.138;10.090;2024-03-08T08:22:00;26.90;;;19.17;;
10313;SDS011;5202;49.138;10.090;2024-03-08T08:24:28;26.20;;;19.40;;
10313;SDS011;5202;49.138;10.090;2024-03-08T08:26:57;27.23;;;20.67;;
10313;SDS011;5202;49.138;10.090;2024-03-08T08:29:27;29.00;;;20.97;;
10313;SDS011;5202;49.138;10.090;2024-03-08T08:31:57;31.10;;;20.43;;
10313;SDS011;5202;49.138;10.090;2024-03-08T08:34:29;27.80;;;19.70;;
10313;SDS011;5202;49.138;10.090;2024-03-08T08:36:58;28.83;;;20.23;;
10313;SDS011;5202;49.138;10.090;2024-03-08T08:39:27;29.10;;;19.23;;
10313;SDS011;5202;49.138;10.090;2024-03-08T08:41:56;28.03;;;18.83;;
10313;SDS011;5202;49.138;10.090;2024-03-08T08:44:24;27.83;;;19.97;;
10313;SDS011;5202;49.138;10.090;2024-03-08T08:46:54;27.10;;;19.70;;
10313;SDS011;5202;49.138;10.090;2024-03-08T08:49:31;26.93;;;19.40;;
10313;SDS011;5202;49.138;10.090;2024-03-08T08:52:00;30.60;;;21.17;;
10313;SDS011;5202;49.138;10.090;2024-03-08T08:54:41;25.93;;;19.10;;
10313;SDS011;5202;49.138;10.090;2024-03-08T08:57:28;26.30;;;19.50;;
10313;SDS011;5202;49.138;10.090;2024-03-08T08:59:58;28.10;;;19.97;;
10313;SDS011;5202;49.138;10.090;2024-03-08T09:02:27;27.10;;;18.87;;
10313;SDS011;5202;49.138;10.090;2024-03-08T09:04:57;25.83;;;18.33;;
10313;SDS011;5202;49.138;10.090;2024-03-08T09:07:31;26.47;;;18.90;;
10313;SDS011;5202;49.138;10.090;2024-03-08T09:10:00;28.90;;;19.53;;
10313;SDS011;5202;49.138;10.090;2024-03-08T09:12:43;25.63;;;18.33;;
10313;SDS011;5202;49.138;10.090;2024-03-08T09:15:13;29.27;;;19.63;;
10313;SDS011;5202;49.138;10.090;2024-03-08T09:17:44;27.03;;;19.57;;
10313;SDS011;5202;49.138;10.090;2024-03-08T09:20:18;28.03;;;18.70;;
10313;SDS011;5202;49.138;10.090;2024-03-08T09:22:47;27.17;;;18.43;;
10313;SDS011;5202;49.138;10.090;2024-03-08T09:25:14;24.07;;;18.27;;
10313;SDS011;5202;49.138;10.090;2024-03-08T09:27:43;26.80;;;18.53;;
10313;SDS011;5202;49.138;10.090;2024-03-08T09:30:14;27.40;;;18.87;;
10313;SDS011;5202;49.138;10.090;2024-03-08T09:32:44;25.57;;;18.27;;
10313;SDS011;5202;49.138;10.090;2024-03-08T09:35:12;27.80;;;19.10;;
10313;SDS011;5202;49.138;10.090;2024-03-08T09:37:41;27.73;;;18.60;;
10313;SDS011;5202;49.138;10.090;2024-03-08T09:40:10;27.27;;;18.10;;
10313;SDS011;5202;49.138;10.090;2024-03-08T09:42:42;27.83;;;17.23;;
10313;SDS011;5202;49.138;10.090;2024-03-08T09:45:11;27.07;;;16.90;;
10313;SDS011;5202;49.138;10.090;2024-03-08T09:47:44;25.07;;;16.60;;
10313;SDS011;5202;49.138;10.090;2024-03-08T09:50:13;26.03;;;16.70;;
10313;SDS011;5202;49.138;10.090;2024-03-08T09:52:42;25.83;;;16.63;;
10313;SDS011;5202;49.138;10.090;2024-03-08T09:55:14;25.47;;;16.57;;
10313;SDS011;5202;49.138;10.090;2024-03-08T09:57:49;27.63;;;16.90;;
10313;SDS011;5202;49.138;10.090;2024-03-08T10:00:39;29.27;;;16.40;;
10313;SDS011;5202;49.138;10.090;2024-03-08T10:03:08;26.13;;;16.03;;
10313;SDS011;5202;49.138;10.090;2024-03-08T10:05:40;23.30;;;14.57;;
10313;SDS011;5202;49.138;10.090;2024-03-08T10:08:11;28.83;;;15.47;;
10313;SDS011;5202;49.138;10.090;2024-03-08T10:10:40;26.03;;;15.47;;
10313;SDS011;5202;49.138;10.090;2024-03-08T10:13:10;26.90;;;15.57;;
10313;SDS011;5202;49.138;10.090;2024-03-08T10:15:41;25.40;;;15.30;;
10313;SDS011;5202;49.138;10.090;2024-03-08T10:18:12;25.33;;;15.33;;
10313;SDS011;5202;49.138;10.090;2024-03-08T10:20:40;28.33;;;16.87;;
10313;SDS011;5202;49.138;10.090;2024-03-08T10:23:09;26.03;;;15.00;;
10313;SDS011;5202;49.138;10.090;2024-03-08T10:25:38;25.17;;;15.33;;
10313;SDS011;5202;49.138;10.090;2024-03-08T10:28:06;24.67;;;15.10;;
10313;SDS011;5202;49.138;10.090;2024-03-08T10:30:35;22.90;;;14.50;;
10313;SDS011;5202;49.138;10.090;2024-03-08T10:33:05;24.53;;;15.83;;
10313;SDS011;5202;49.138;10.090;2024-03-08T10:35:34;25.40;;;15.53;;
10313;SDS011;5202;49.138;10.090;2024-03-08T10:38:02;23.17;;;14.73;;
10313;SDS011;5202;49.138;10.090;2024-03-08T10:40:35;25.70;;;16.17;;
10313;SDS011;5202;49.138;10.090;2024-03-08T10:43:09;21.83;;;15.20;;
10313;SDS011;5202;49.138;10.090;2024-03-08T10:45:56;22.53;;;14.73;;
10313;SDS011;5202;49.138;10.090;2024-03-08T10:48:39;25.73;;;16.10;;
10313;SDS011;5202;49.138;10.090;2024-03-08T10:51:11;27.63;;;16.13;;
10313;SDS011;5202;49.138;10.090;2024-03-08T10:53:40;25.67;;;14.53;;
10313;SDS011;5202;49.138;10.090;2024-03-08T10:56:10;24.23;;;14.90;;
10313;SDS011;5202;49.138;10.090;2024-03-08T10:58:41;21.87;;;14.50;;
10313;SDS011;5202;49.138;10.090;2024-03-08T11:01:11;23.43;;;15.07;;
10313;SDS011;5202;49.138;10.090;2024-03-08T11:03:51;23.63;;;15.40;;
10313;SDS011;5202;49.138;10.090;2024-03-08T11:06:23;20.83;;;15.50;;
10313;SDS011;5202;49.138;10.090;2024-03-08T11:09:10;20.93;;;14.10;;
10313;SDS011;5202;49.138;10.090;2024-03-08T11:14:53;23.77;;;14.87;;
10313;SDS011;5202;49.138;10.090;2024-03-08T11:20:17;25.87;;;16.33;;
10313;SDS011;5202;49.138;10.090;2024-03-08T11:22:48;25.33;;;16.00;;
10313;SDS011;5202;49.138;10.090;2024-03-08T11:25:35;24.63;;;16.70;;
10313;SDS011;5202;49.138;10.090;2024-03-08T11:28:08;23.47;;;16.17;;
10313;SDS011;5202;49.138;10.090;2024-03-08T11:30:43;22.23;;;15.13;;
10313;SDS011;5202;49.138;10.090;2024-03-08T11:33:15;23.87;;;15.73;;
10313;SDS011;5202;49.138;10.090;2024-03-08T11:35:46;23.77;;;16.37;;
10313;SDS011;5202;49.138;10.090;2024-03-08T11:38:15;24.37;;;16.07;;
10313;SDS011;5202;49.138;10.090;2024-03-08T11:40:45;22.57;;;15.63;;
10313;SDS011;5202;49.138;10.090;2024-03-08T11:43:17;24.00;;;15.63;;
10313;SDS011;5202;49.138;10.090;2024-03-08T11:45:46;22.77;;;15.83;;
10313;SDS011;5202;49.138;10.090;2024-03-08T11:48:15;25.73;;;16.10;;
10313;SDS011;5202;49.138;10.090;2024-03-08T11:50:43;22.47;;;15.20;;
10313;SDS011;5202;49.138;10.090;2024-03-08T11:53:13;21.60;;;15.97;;
10313;SDS011;5202;49.138;10.090;2024-03-08T11:55:41;24.50;;;16.50;;
10313;SDS011;5202;49.138;10.090;2024-03-08T11:58:10;22.37;;;15.80;;
10313;SDS011;5202;49.138;10.090;2024-03-08T12:00:40;23.57;;;15.77;;
10313;SDS011;5202;49.138;10.090;2024-03-08T12:03:09;23.93;;;15.73;;
10313;SDS011;5202;49.138;10.090;2024-03-08T12:05:38;20.07;;;14.50;;
10313;SDS011;5202;49.138;10.090;2024-03-08T12:08:06;23.47;;;15.63;;
10313;SDS011;5202;49.138;10.090;2024-03-08T12:10:40;23.87;;;15.93;;
10313;SDS011;5202;49.138;10.090;2024-03-08T12:13:10;20.70;;;14.90;;
10313;SDS011;5202;49.138;10.090;2024-03-08T12:15:41;23.73;;;17.77;;
10313;SDS011;5202;49.138;10.090;2024-03-08T12:18:10;23.73;;;16.00;;
10313;SDS011;5202;49.138;10.090;2024-03-08T12:20:39;23.53;;;16.90;;
10313;SDS011;5202;49.138;10.090;2024-03-08T12:23:13;26.00;;;16.97;;
10313;SDS011;5202;49.138;10.090;2024-03-08T12:25:44;22.47;;;15.50;;
10313;SDS011;5202;49.138;10.090;2024-03-08T12:28:14;24.80;;;16.40;;
10313;SDS011;5202;49.138;10.090;2024-03-08T12:30:45;23.30;;;16.03;;
10313;SDS011;5202;49.138;10.090;2024-03-08T12:33:15;24.17;;;16.20;;
10313;SDS011;5202;49.138;10.090;2024-03-08T12:35:50;21.80;;;15.30;;
10313;SDS011;5202;49.138;10.090;2024-03-08T12:38:23;23.00;;;16.23;;
10313;SDS011;5202;49.138;10.090;2024-03-08T12:40:57;23.63;;;16.10;;
10313;SDS011;5202;49.138;10.090;2024-03-08T12:43:27;22.53;;;15.30;;
10313;SDS011;5202;49.138;10.090;2024-03-08T12:45:58;21.57;;;15.57;;
10313;SDS011;5202;49.138;10.090;2024-03-08T12:48:27;23.10;;;15.33;;
10313;SDS011;5202;49.138;10.090;2024-03-08T12:50:55;22.43;;;14.80;;
10313;SDS011;5202;49.138;10.090;2024-03-08T12:53:23;21.17;;;15.03;;
10313;SDS011;5202;49.138;10.090;2024-03-08T12:55:57;24.33;;;15.13;;
10313;SDS011;5202;49.138;10.090;2024-03-08T12:58:26;20.83;;;13.47;;
10313;SDS011;5202;49.138;10.090;2024-03-08T13:00:54;22.63;;;13.83;;
10313;SDS011;5202;49.138;10.090;2024-03-08T13:03:23;20.70;;;15.20;;
10313;SDS011;5202;49.138;10.090;2024-03-08T13:05:51;20.97;;;14.60;;
10313;SDS011;5202;49.138;10.090;2024-03-08T13:08:22;22.87;;;14.73;;
10313;SDS011;5202;49.138;10.090;2024-03-08T13:10:54;20.60;;;14.03;;
10313;SDS011;5202;49.138;10.090;2024-03-08T13:13:24;21.40;;;13.77;;
10313;SDS011;5202;49.138;10.090;2024-03-08T13:15:52;21.57;;;15.00;;
10313;SDS011;5202;49.138;10.090;2024-03-08T13:18:23;21.53;;;13.80;;
10313;SDS011;5202;49.138;10.090;2024-03-08T13:20:51;19.87;;;13.40;;
10313;SDS011;5202;49.138;10.090;2024-03-08T13:23:21;21.77;;;13.50;;
10313;SDS011;5202;49.138;10.090;2024-03-08T13:25:49;19.70;;;13.70;;
10313;SDS011;5202;49.138;10.090;2024-03-08T13:28:17;19.07;;;14.27;;
10313;SDS011;5202;49.138;10.090;2024-03-08T13:30:51;18.70;;;13.07;;
10313;SDS011;5202;49.138;10.090;2024-03-08T13:33:25;18.83;;;13.43;;
10313;SDS011;5202;49.138;10.090;2024-03-08T13:35:54;19.83;;;12.80;;
10313;SDS011;5202;49.138;10.090;2024-03-08T13:38:30;19.87;;;13.07;;
10313;SDS011;5202;49.138;10.090;2024-03-08T13:41:01;21.60;;;13.70;;
10313;SDS011;5202;49.138;10.090;2024-03-08T13:43:30;17.57;;;11.80;;
10313;SDS011;5202;49.138;10.090;2024-03-08T13:46:02;16.30;;;11.50;;
10313;SDS011;5202;49.138;10.090;2024-03-08T13:48:32;15.97;;;11.97;;
10313;SDS011;5202;49.138;10.090;2024-03-08T13:51:00;16.50;;;11.82;;
10313;SDS011;5202;49.138;10.090;2024-03-08T13:53:29;18.37;;;11.73;;
10313;SDS011;5202;49.138;10.090;2024-03-08T13:55:57;17.20;;;11.10;;
10313;SDS011;5202;49.138;10.090;2024-03-08T13:58:27;15.77;;;11.10;;
10313;SDS011;5202;49.138;10.090;2024-03-08T14:00:55;18.52;;;12.13;;
10313;SDS011;5202;49.138;10.090;2024-03-08T14:03:25;19.55;;;11.75;;
10313;SDS011;5202;49.138;10.090;2024-03-08T14:05:53;17.80;;;11.63;;
10313;SDS011;5202;49.138;10.090;2024-03-08T14:08:24;15.70;;;10.57;;
10313;SDS011;5202;49.138;10.090;2024-03-08T14:10:53;17.73;;;11.30;;
10313;SDS011;5202;49.138;10.090;2024-03-08T14:13:22;13.37;;;9.60;;
10313;SDS011;5202;49.138;10.090;2024-03-08T14:15:51;15.85;;;10.25;;
10313;SDS011;5202;49.138;10.090;2024-03-08T14:18:20;14.47;;;9.77;;
10313;SDS011;5202;49.138;10.090;2024-03-08T14:20:50;13.50;;;9.40;;
10313;SDS011;5202;49.138;10.090;2024-03-08T14:23:18;14.15;;;9.45;;
10313;SDS011;5202;49.138;10.090;2024-03-08T14:25:48;14.33;;;10.10;;
10313;SDS011;5202;49.138;10.090;2024-03-08T14:28:18;17.83;;;9.67;;
10313;SDS011;5202;49.138;10.090;2024-03-08T14:30:47;15.32;;;10.85;;
10313;SDS011;5202;49.138;10.090;2024-03-08T14:33:16;18.50;;;10.25;;
10313;SDS011;5202;49.138;10.090;2024-03-08T14:35:45;16.33;;;10.00;;
10313;SDS011;5202;49.138;10.090;2024-03-08T14:38:17;16.08;;;11.20;;
10313;SDS011;5202;49.138;10.090;2024-03-08T14:40:47;16.05;;;10.63;;
10313;SDS011;5202;49.138;10.090;2024-03-08T14:43:15;16.50;;;11.07;;